Time;durP1;ratioP1;P1;durP2;ratioP2;P2;SDS_P1;SDS_P2;PMS_P1;PMS_P2;Temp;Humidity;BMP_temperature;BMP_pressure;BME280_temperature;BME280_humidity;BME280_pressure;Samples;Min_cycle;Max_cycle;Signal;HPM_P1;HPM_P2
2022/11/01 00:00:54;;;;;;;16.13;8.68;;;;;;;23.40;50.44;100762.66;5051246;28;20033;-71
2022/11/01 00:03:22;;;;;;;18.73;7.97;;;;;;;23.35;50.77;100754.97;5058130;28;20029;-70
2022/11/01 00:05:47;;;;;;;17.10;7.35;;;;;;;23.93;49.15;100755.59;5052309;28;20099;-70
2022/11/01 00:08:12;;;;;;;18.25;7.55;;;;;;;23.71;49.57;100758.84;5050285;28;20176;-70
2022/11/01 00:10:38;;;;;;;14.68;7.63;;;;;;;23.92;49.21;100753.03;5050528;28;20126;-70
2022/11/01 00:13:03;;;;;;;16.02;7.97;;;;;;;24.19;48.55;100761.00;5063220;28;20058;-69
2022/11/01 00:15:28;;;;;;;13.50;7.53;;;;;;;22.84;52.92;100753.69;5053248;28;20044;-70
2022/11/01 00:17:54;;;;;;;19.48;8.43;;;;;;;23.95;49.51;100763.53;5048576;28;20025;-70
2022/11/01 00:20:19;;;;;;;20.45;9.70;;;;;;;24.18;49.17;100765.50;5050338;28;20040;-69
2022/11/01 00:22:44;;;;;;;14.13;8.05;;;;;;;23.92;49.60;100763.72;5057297;28;20063;-70
2022/11/01 00:25:10;;;;;;;15.05;7.45;;;;;;;24.13;48.99;100756.94;5050513;28;20029;-69
2022/11/01 00:27:35;;;;;;;17.08;8.60;;;;;;;24.54;47.91;100753.22;5052217;28;20021;-70
2022/11/01 00:30:01;;;;;;;13.82;8.25;;;;;;;23.62;50.52;100740.78;5049054;28;20033;-70
2022/11/01 00:32:26;;;;;;;18.77;8.07;;;;;;;23.57;50.94;100733.06;5054405;28;20446;-69
2022/11/01 00:34:51;;;;;;;15.60;8.07;;;;;;;24.00;49.12;100734.69;5069717;28;20226;-70
2022/11/01 00:37:17;;;;;;;12.35;7.10;;;;;;;23.64;50.72;100731.69;5059290;28;20056;-70
2022/11/01 00:39:42;;;;;;;16.80;7.50;;;;;;;23.84;49.79;100737.53;5050949;28;20021;-70
2022/11/01 00:42:08;;;;;;;13.73;6.95;;;;;;;23.88;49.20;100731.91;5051752;28;20389;-70
2022/11/01 00:44:33;;;;;;;15.88;7.30;;;;;;;23.21;51.92;100727.38;5051560;28;20029;-70
2022/11/01 00:46:58;;;;;;;19.77;7.57;;;;;;;23.26;50.90;100712.91;5069840;28;20028;-70
2022/11/01 00:49:24;;;;;;;11.30;6.93;;;;;;;23.42;51.07;100718.94;5086233;28;20028;-70
2022/11/01 00:51:51;;;;;;;18.52;7.47;;;;;;;22.81;52.30;100729.91;5067074;28;20116;-70
2022/11/01 00:54:16;;;;;;;17.60;6.65;;;;;;;23.20;50.92;100723.03;5048391;28;20450;-69
2022/11/01 00:56:41;;;;;;;21.67;7.00;;;;;;;23.22;51.53;100717.59;5051160;28;20036;-70
2022/11/01 00:59:07;;;;;;;16.80;6.28;;;;;;;23.12;51.80;100722.69;5055422;28;20420;-70
2022/11/01 01:01:32;;;;;;;16.98;6.60;;;;;;;23.38;51.14;100717.44;5050826;28;20025;-70
2022/11/01 01:03:57;;;;;;;16.15;6.43;;;;;;;23.19;51.34;100715.09;5050284;28;20059;-70
2022/11/01 01:06:23;;;;;;;16.15;6.72;;;;;;;24.03;50.15;100718.50;5050669;28;20029;-70
2022/11/01 01:08:48;;;;;;;17.58;6.25;;;;;;;23.86;50.21;100717.81;5050169;28;20064;-70
2022/11/01 01:11:13;;;;;;;18.13;6.07;;;;;;;23.87;50.10;100708.81;5051709;28;20032;-70
2022/11/01 01:13:39;;;;;;;18.20;7.00;;;;;;;23.39;50.86;100711.16;5049458;28;20029;-70
2022/11/01 01:16:10;;;;;;;14.55;6.65;;;;;;;23.86;50.95;100703.59;5048795;28;20040;-70
2022/11/01 01:18:35;;;;;;;17.77;6.60;;;;;;;23.98;49.70;100699.25;5061904;28;20541;-70
2022/11/01 01:21:02;;;;;;;14.90;6.53;;;;;;;23.91;50.46;100703.31;5050254;28;20412;-70
2022/11/01 01:23:27;;;;;;;17.50;7.20;;;;;;;23.69;50.13;100700.25;5051530;28;20029;-69
2022/11/01 01:25:52;;;;;;;14.73;6.45;;;;;;;23.64;50.77;100701.50;5049578;28;20036;-70
2022/11/01 01:28:18;;;;;;;15.18;6.28;;;;;;;23.18;52.24;100694.75;5063882;28;20441;-69
2022/11/01 01:30:43;;;;;;;10.30;5.90;;;;;;;23.54;51.66;100710.13;5070166;28;20029;-70
2022/11/01 01:33:09;;;;;;;15.82;5.47;;;;;;;23.69;51.36;100700.25;5069839;28;20028;-69
2022/11/01 01:35:34;;;;;;;12.13;7.28;;;;;;;24.08;50.64;100700.31;5051776;28;20116;-69
2022/11/01 01:37:59;;;;;;;13.95;5.70;;;;;;;24.32;50.23;100697.78;5060638;28;20031;-69
2022/11/01 01:40:25;;;;;;;12.57;6.40;;;;;;;24.03;50.42;100697.97;5061002;28;20500;-69
2022/11/01 01:42:50;;;;;;;12.45;6.20;;;;;;;24.44;49.79;100692.53;5049138;28;20663;-70
2022/11/01 01:45:33;;;;;;;15.02;6.05;;;;;;;24.26;51.01;100697.34;5049302;28;20497;-69
2022/11/01 01:48:06;;;;;;;16.00;6.47;;;;;;;23.43;52.96;100702.00;5053833;28;20132;-69
2022/11/01 01:50:40;;;;;;;9.93;5.43;;;;;;;23.79;53.13;100695.13;5048204;28;20425;-69
2022/11/01 01:53:24;;;;;;;8.57;5.05;;;;;;;22.95;55.38;100691.72;5049887;28;20025;-70
2022/11/01 01:55:57;;;;;;;11.90;6.03;;;;;;;23.90;52.85;100691.78;5049874;28;20048;-69
2022/11/01 01:58:32;;;;;;;12.05;5.47;;;;;;;24.19;51.05;100689.78;5052145;28;20092;-69
2022/11/01 02:00:58;;;;;;;14.68;5.78;;;;;;;23.62;52.80;100684.78;5053714;28;20032;-69
2022/11/01 02:03:28;;;;;;;12.13;5.18;;;;;;;23.15;54.16;100685.16;5053396;28;20021;-69
2022/11/01 02:05:59;;;;;;;9.30;5.28;;;;;;;23.66;52.97;100672.94;5054287;28;20439;-69
2022/11/01 02:08:27;;;;;;;9.32;4.93;;;;;;;23.23;54.90;100686.44;5051835;28;20035;-69
2022/11/01 02:10:59;;;;;;;7.47;5.03;;;;;;;23.06;55.03;100679.53;5063816;28;20429;-69
2022/11/01 02:13:25;;;;;;;10.63;5.07;;;;;;;23.81;52.24;100693.22;5053789;28;20112;-70
2022/11/01 02:16:09;;;;;;;12.27;5.32;;;;;;;24.39;51.17;100674.16;5053265;28;20120;-69
2022/11/01 02:18:46;;;;;;;12.13;5.63;;;;;;;23.19;54.41;100689.31;5053854;28;20041;-70
2022/11/01 02:21:29;;;;;;;11.52;5.65;;;;;;;23.61;52.49;100699.06;5053264;28;20048;-69
2022/11/01 02:24:23;;;;;;;11.75;5.07;;;;;;;23.23;54.04;100700.63;5053269;28;20557;-70
2022/11/01 02:27:00;;;;;;;15.05;4.75;;;;;;;23.05;55.08;100705.31;5050441;28;20349;-69
2022/11/01 02:29:48;;;;;;;10.68;4.30;;;;;;;23.04;54.70;100708.97;5068925;28;20592;-69
2022/11/01 02:32:24;;;;;;;8.98;4.07;;;;;;;23.21;54.58;100715.88;5068140;28;20039;-69
2022/11/01 02:34:57;;;;;;;6.03;3.80;;;;;;;23.21;53.79;100716.72;5054903;28;20403;-69
2022/11/01 02:37:22;;;;;;;;;;;;;;;23.03;53.98;100717.91;5056071;28;20052;-70
2022/11/01 02:39:52;;;;;;;7.65;3.95;;;;;;;23.76;52.58;100726.53;5062900;28;19951;-70
2022/11/01 02:42:23;;;;;;;10.20;3.83;;;;;;;24.11;51.04;100721.50;5063886;28;20369;-69
2022/11/01 02:44:57;;;;;;;7.72;3.65;;;;;;;23.64;51.76;100729.03;5052584;28;20064;-69
2022/11/01 02:47:24;;;;;;;10.25;3.30;;;;;;;24.01;50.66;100741.75;5050842;28;20424;-69
2022/11/01 02:49:54;;;;;;;8.50;3.58;;;;;;;24.14;50.48;100737.28;5055471;28;20024;-69
2022/11/01 02:52:23;;;;;;;8.73;3.35;;;;;;;23.15;52.73;100741.13;5073380;28;20024;-69
2022/11/01 02:54:55;;;;;;;7.20;3.22;;;;;;;23.77;51.75;100755.78;5072659;28;20028;-69
2022/11/01 02:57:33;;;;;;;8.38;3.65;;;;;;;24.53;49.00;100753.31;5059442;28;20112;-69
2022/11/01 03:00:03;;;;;;;4.63;2.20;;;;;;;22.88;50.88;100757.88;5050801;28;20106;-69
2022/11/01 03:02:43;;;;;;;3.47;2.00;;;;;;;23.09;50.92;100765.47;5067710;28;20036;-70
2022/11/01 03:05:15;;;;;;;10.88;2.65;;;;;;;23.31;49.66;100774.78;5066826;28;20068;-70
2022/11/01 03:07:44;;;;;;;;;;;;;;;23.44;49.69;100778.38;5049977;28;20025;-69
2022/11/01 03:10:10;;;;;;;4.80;2.22;;;;;;;23.81;48.18;100788.41;5053409;28;20310;-70
2022/11/01 03:12:48;;;;;;;8.05;2.13;;;;;;;22.49;51.66;100786.06;5064594;28;20025;-70
2022/11/01 03:15:25;;;;;;;2.70;1.65;;;;;;;22.33;50.29;100798.56;5052780;28;20028;-70
2022/11/01 03:18:07;;;;;;;1.67;1.33;;;;;;;22.43;48.38;100797.06;5051232;28;20522;-69
2022/11/01 03:20:49;;;;;;;5.10;1.02;;;;;;;21.47;51.37;100796.38;5051178;28;20024;-70
2022/11/01 03:23:27;;;;;;;2.80;1.20;;;;;;;22.16;48.41;100808.41;5069915;28;20051;-71
2022/11/01 03:25:56;;;;;;;2.33;1.33;;;;;;;22.53;47.53;100806.22;5053855;28;20075;-70
2022/11/01 03:28:34;;;;;;;3.78;1.13;;;;;;;22.65;46.32;100809.09;5049801;28;20489;-68
2022/11/01 03:31:10;;;;;;;3.10;0.95;;;;;;;21.61;47.31;100812.47;5050228;28;20107;-70
2022/11/01 03:33:44;;;;;;;1.67;0.80;;;;;;;22.08;46.74;100821.31;5049770;28;20050;-70
2022/11/01 03:36:12;;;;;;;1.73;0.80;;;;;;;22.23;46.66;100818.66;5051157;28;20032;-70
2022/11/01 03:38:42;;;;;;;4.28;1.30;;;;;;;21.67;47.45;100821.88;5052077;28;20032;-69
2022/11/01 03:41:12;;;;;;;5.68;1.08;;;;;;;21.66;48.10;100836.13;5048940;28;20027;-70
2022/11/01 03:43:39;;;;;;;4.43;1.00;;;;;;;21.80;47.38;100833.53;5045753;28;20032;-69
2022/11/01 03:46:06;;;;;;;3.25;0.75;;;;;;;21.57;48.12;100841.94;5052149;28;20100;-70
2022/11/01 03:48:31;;;;;;;4.63;0.90;;;;;;;21.64;47.42;100843.34;5050591;28;20039;-70
2022/11/01 03:50:57;;;;;;;1.67;0.68;;;;;;;21.43;48.34;100846.22;5051382;28;20021;-71
2022/11/01 03:53:23;;;;;;;4.00;0.77;;;;;;;20.85;50.02;100860.84;5050761;28;20074;-70
2022/11/01 03:55:49;;;;;;;5.50;0.90;;;;;;;20.94;49.26;100864.84;5050578;28;20053;-70
2022/11/01 03:58:14;;;;;;;4.78;1.00;;;;;;;20.67;49.47;100873.25;5048059;28;20044;-70
2022/11/01 04:00:42;;;;;;;5.97;0.73;;;;;;;20.87;48.90;100863.41;5051544;28;20025;-70
2022/11/01 04:03:09;;;;;;;5.07;0.73;;;;;;;20.43;48.85;100881.56;5050701;28;20027;-71
2022/11/01 04:05:36;;;;;;;4.88;0.98;;;;;;;21.33;46.92;100882.22;5051327;28;20025;-69
2022/11/01 04:08:02;;;;;;;6.20;0.95;;;;;;;20.31;48.29;100882.16;5051095;28;20013;-71
2022/11/01 04:10:28;;;;;;;4.97;0.98;;;;;;;20.25;48.87;100901.91;5049332;28;20090;-70
2022/11/01 04:12:54;;;;;;;4.15;0.90;;;;;;;20.18;49.32;100895.16;5049022;28;20056;-70
2022/11/01 04:20:57;;;;;;;6.63;1.20;;;;;;;19.62;48.91;100932.28;5051908;28;20083;-71
2022/11/01 04:23:23;;;;;;;9.48;1.17;;;;;;;20.71;46.65;100930.63;5049945;28;20021;-70
2022/11/01 04:25:48;;;;;;;11.68;1.00;;;;;;;19.29;48.16;100951.44;5050277;28;20029;-71
2022/11/01 04:28:15;;;;;;;7.82;1.98;;;;;;;19.96;46.72;100940.47;5045895;28;20024;-70
2022/11/01 04:30:41;;;;;;;13.43;1.63;;;;;;;20.96;45.21;100932.00;5050458;28;20029;-70
2022/11/01 04:33:07;;;;;;;9.15;1.45;;;;;;;20.47;45.87;100920.28;5052284;28;20025;-71
2022/11/01 04:35:34;;;;;;;4.38;0.93;;;;;;;19.37;47.93;100936.97;5050546;28;20044;-70
2022/11/01 04:37:59;;;;;;;4.75;0.90;;;;;;;19.91;47.25;100931.88;5048300;28;20140;-71
2022/11/01 04:40:25;;;;;;;10.35;1.27;;;;;;;19.45;47.58;100946.31;5061308;28;20104;-70
2022/11/01 04:42:53;;;;;;;4.05;1.00;;;;;;;20.32;45.85;100944.94;5056441;28;20024;-70
2022/11/01 04:45:19;;;;;;;8.70;1.50;;;;;;;20.62;45.07;100939.00;5048931;28;20112;-70
2022/11/01 04:47:51;;;;;;;7.03;1.40;;;;;;;20.19;45.84;100941.16;5053831;28;20115;-69
2022/11/01 04:50:20;;;;;;;8.95;1.10;;;;;;;20.42;44.62;100926.75;5086350;28;20024;-69
2022/11/01 04:52:46;;;;;;;4.85;1.00;;;;;;;19.61;46.42;100935.00;5058479;28;20028;-71
2022/11/01 04:55:11;;;;;;;5.63;1.10;;;;;;;20.17;45.46;100944.75;5049395;28;20527;-70
2022/11/01 04:57:41;;;;;;;5.20;1.00;;;;;;;20.35;45.39;100936.81;5047847;28;20052;-69
2022/11/01 05:00:10;;;;;;;8.93;1.10;;;;;;;19.68;46.39;100939.09;5044780;28;20043;-70
2022/11/01 05:02:36;;;;;;;5.45;1.05;;;;;;;19.60;46.59;100944.72;5049669;28;20361;-71
2022/11/01 05:05:01;;;;;;;6.88;0.90;;;;;;;19.45;46.68;100934.84;5050289;28;20029;-69
2022/11/01 05:07:27;;;;;;;9.18;1.10;;;;;;;20.00;45.14;100929.66;5049891;28;20103;-70
2022/11/01 05:09:52;;;;;;;9.90;1.00;;;;;;;20.19;45.30;100933.19;5050234;28;20028;-70
2022/11/01 05:12:18;;;;;;;5.90;1.10;;;;;;;20.32;44.31;100936.97;5048943;28;20485;-69
2022/11/01 05:14:43;;;;;;;5.75;1.33;;;;;;;19.19;46.25;100933.38;5046423;28;20456;-70
2022/11/01 05:17:08;;;;;;;6.20;1.65;;;;;;;19.87;45.03;100930.31;5051524;28;20037;-70
2022/11/01 05:19:34;;;;;;;13.18;1.35;;;;;;;19.72;44.72;100930.06;5070558;28;20036;-69
2022/11/01 05:21:59;;;;;;;11.68;1.50;;;;;;;20.01;44.39;100943.75;5065052;28;20177;-69
2022/11/01 05:24:25;;;;;;;13.40;1.55;;;;;;;19.55;44.91;100948.53;5050058;28;20124;-69
2022/11/01 05:26:50;;;;;;;7.82;1.00;;;;;;;19.33;46.01;100946.88;5050433;28;20023;-69
2022/11/01 05:29:15;;;;;;;7.32;1.42;;;;;;;20.13;43.83;100952.94;5047169;28;20029;-69
2022/11/01 05:31:41;;;;;;;11.85;1.45;;;;;;;18.88;45.02;100950.63;5051866;28;20036;-70
2022/11/01 05:34:06;;;;;;;13.77;2.78;;;;;;;19.49;44.45;100952.31;5052124;28;20082;-70
2022/11/01 05:36:31;;;;;;;8.98;1.40;;;;;;;19.21;44.43;100952.72;5053948;28;20028;-71
2022/11/01 05:38:57;;;;;;;12.23;1.95;;;;;;;19.98;42.58;100947.41;5054168;28;20031;-69
2022/11/01 05:41:24;;;;;;;11.52;1.50;;;;;;;19.41;43.49;100950.03;5053360;28;20021;-71
2022/11/01 05:43:49;;;;;;;10.65;1.67;;;;;;;19.83;43.33;100956.94;5051516;28;20398;-70
2022/11/01 05:46:14;;;;;;;13.45;2.05;;;;;;;18.92;44.80;100963.66;5051631;28;20032;-71
2022/11/01 05:48:40;;;;;;;9.52;1.70;;;;;;;19.42;44.25;100957.03;5053458;28;20017;-70
2022/11/01 05:51:06;;;;;;;15.20;1.65;;;;;;;19.82;43.01;100981.78;5051507;28;20047;-70
2022/11/01 05:53:32;;;;;;;9.38;1.70;;;;;;;19.30;43.88;100974.38;5053560;28;20052;-69
2022/11/01 05:55:58;;;;;;;16.20;1.40;;;;;;;19.04;44.20;100970.22;5069276;28;20579;-71
2022/11/01 05:58:23;;;;;;;9.98;1.77;;;;;;;19.66;43.35;100981.59;5054905;28;20032;-70
2022/11/01 06:00:49;;;;;;;9.30;1.60;;;;;;;18.94;44.83;100998.00;5061539;28;20032;-70
2022/11/01 06:03:14;;;;;;;14.13;2.17;;;;;;;19.85;42.99;100986.06;5066367;28;20477;-70
2022/11/01 06:05:39;;;;;;;13.93;1.80;;;;;;;19.18;44.49;100989.91;5052520;28;20404;-72
2022/11/01 06:08:06;;;;;;;13.40;2.70;;;;;;;18.59;44.80;100976.50;5052708;28;20021;-71
2022/11/01 06:10:31;;;;;;;16.05;2.17;;;;;;;19.21;44.06;100981.88;5052434;28;20403;-70
2022/11/01 06:12:58;;;;;;;17.58;2.50;;;;;;;19.59;43.42;101000.47;5048818;28;20559;-71
2022/11/01 06:15:23;;;;;;;14.77;2.20;;;;;;;19.09;43.72;101015.88;5065036;28;20021;-71
2022/11/01 06:17:57;;;;;;;13.63;2.00;;;;;;;19.00;43.99;101008.34;5072397;28;20426;-70
2022/11/01 06:20:28;;;;;;;12.25;1.58;;;;;;;19.81;42.61;101006.56;5055284;28;20029;-71
2022/11/01 06:22:54;;;;;;;10.18;2.10;;;;;;;19.60;42.76;101007.50;5054497;28;20049;-70
2022/11/01 06:25:19;;;;;;;11.25;2.22;;;;;;;19.99;42.51;101020.78;5052290;28;20033;-71
2022/11/01 06:27:45;;;;;;;10.90;1.63;;;;;;;19.25;43.63;101020.53;5053561;28;20031;-70
2022/11/01 06:30:10;;;;;;;22.48;2.30;;;;;;;18.48;45.29;101017.47;5057314;28;20056;-69
2022/11/01 06:32:36;;;;;;;9.75;1.52;;;;;;;19.42;44.07;101025.09;5059247;28;20622;-71
2022/11/01 06:35:01;;;;;;;14.05;1.85;;;;;;;18.85;44.87;101019.53;5052270;28;20074;-70
2022/11/01 06:37:26;;;;;;;14.20;1.98;;;;;;;18.76;45.19;101037.53;5051695;28;20143;-71
2022/11/01 06:39:52;;;;;;;8.68;1.67;;;;;;;18.35;45.91;101032.13;5047030;28;20508;-70
2022/11/01 06:42:17;;;;;;;17.90;1.92;;;;;;;18.75;45.29;101038.47;5062429;28;20036;-71
2022/11/01 06:44:42;;;;;;;18.30;1.63;;;;;;;19.58;43.91;101030.59;5050102;28;20500;-70
2022/11/01 06:47:08;;;;;;;14.55;2.08;;;;;;;18.68;45.61;101044.91;5052611;28;20031;-71
2022/11/01 06:49:33;;;;;;;11.82;2.35;;;;;;;18.36;46.23;101049.72;5053534;28;20021;-71
2022/11/01 06:51:59;;;;;;;11.70;1.90;;;;;;;19.03;44.99;101044.41;5051681;28;20477;-70
2022/11/01 06:54:24;;;;;;;14.57;1.77;;;;;;;18.89;44.81;101052.94;5053895;28;20023;-70
2022/11/01 06:56:50;;;;;;;11.07;2.28;;;;;;;19.17;45.01;101057.09;5052122;28;20037;-70
2022/11/01 06:59:15;;;;;;;13.60;2.00;;;;;;;19.39;44.38;101063.19;5051998;28;20140;-70
2022/11/01 07:01:42;;;;;;;11.32;2.20;;;;;;;18.41;46.51;101071.59;5052506;28;20028;-71
2022/11/01 07:04:08;;;;;;;19.00;2.42;;;;;;;19.19;44.80;101071.97;5053910;28;20067;-71
2022/11/01 07:06:33;;;;;;;16.10;3.30;;;;;;;18.70;46.15;101080.16;5051474;28;20017;-70
2022/11/01 07:08:59;;;;;;;13.52;2.13;;;;;;;18.39;46.30;101099.88;5052513;28;20025;-71
2022/11/01 07:11:24;;;;;;;12.50;1.75;;;;;;;18.45;46.28;101102.28;5053467;28;20025;-69
2022/11/01 07:13:50;;;;;;;18.35;3.08;;;;;;;18.95;45.45;101116.28;5052820;28;20428;-70
2022/11/01 07:16:15;;;;;;;14.18;1.95;;;;;;;18.65;45.92;101124.47;5053299;28;20534;-70
2022/11/01 07:18:41;;;;;;;15.07;1.67;;;;;;;18.89;45.82;101113.84;5052237;28;20082;-70
2022/11/01 07:21:06;;;;;;;16.35;2.72;;;;;;;18.81;45.20;101125.59;5051503;28;20033;-71
2022/11/01 07:23:32;;;;;;;19.83;2.53;;;;;;;19.28;44.98;101131.69;5051951;28;20024;-70
2022/11/01 07:25:57;;;;;;;14.70;2.03;;;;;;;18.63;45.93;101137.78;5052174;28;20017;-69
2022/11/01 07:28:23;;;;;;;8.93;1.45;;;;;;;19.05;45.38;101133.50;5052587;28;20028;-71
2022/11/01 07:30:50;;;;;;;20.63;2.63;;;;;;;19.28;45.20;101134.34;5052043;28;20056;-70
2022/11/01 07:33:15;;;;;;;11.30;2.10;;;;;;;19.09;45.99;101148.34;5051996;28;20100;-69
2022/11/01 07:35:41;;;;;;;18.50;2.08;;;;;;;18.58;46.42;101154.75;5051039;28;20579;-70
2022/11/01 07:38:07;;;;;;;16.58;2.13;;;;;;;18.14;47.98;101155.50;5051778;28;20025;-71
2022/11/01 07:40:32;;;;;;;15.05;2.75;;;;;;;19.08;45.93;101165.19;5051098;28;20036;-70
2022/11/01 07:42:59;;;;;;;13.32;1.83;;;;;;;19.79;44.68;101159.56;5051909;28;20033;-69
2022/11/01 07:45:27;;;;;;;14.30;2.83;;;;;;;19.26;45.33;101165.34;5053094;28;20476;-70
2022/11/01 07:48:04;;;;;;;14.10;2.05;;;;;;;18.34;47.72;101183.88;5051953;28;20547;-71
2022/11/01 07:50:30;;;;;;;14.55;2.72;;;;;;;18.34;47.55;101183.00;5051680;28;20397;-70
2022/11/01 07:53:07;;;;;;;12.85;2.00;;;;;;;18.50;47.79;101185.94;5052870;28;20097;-70
2022/11/01 07:55:36;;;;;;;13.98;2.35;;;;;;;18.96;46.68;101184.22;5052017;28;20148;-70
2022/11/01 07:58:03;;;;;;;13.15;2.10;;;;;;;20.14;44.38;101186.38;5051116;28;20020;-70
2022/11/01 08:00:30;;;;;;;15.63;1.80;;;;;;;19.02;46.28;101183.09;5052717;28;20053;-70
2022/11/01 08:03:23;;;;;;;15.85;2.15;;;;;;;19.27;45.25;101182.97;5051948;28;20025;-69
2022/11/01 08:05:49;;;;;;;;;;;;;;;20.04;44.48;101185.03;5051235;28;20130;-71
2022/11/01 08:08:14;;;;;;;16.30;2.10;;;;;;;18.79;46.47;101185.72;5067789;28;20211;-70
2022/11/01 08:10:41;;;;;;;10.02;1.80;;;;;;;19.30;46.31;101196.97;5051665;28;20043;-70
2022/11/01 08:13:13;;;;;;;16.83;2.05;;;;;;;18.57;47.28;101201.53;5051128;28;20040;-70
2022/11/01 08:15:38;;;;;;;12.05;2.08;;;;;;;18.62;47.18;101211.97;5050996;28;20036;-70
2022/11/01 08:18:04;;;;;;;12.27;1.60;;;;;;;18.56;47.65;101225.41;5067112;28;20025;-70
2022/11/01 08:20:30;;;;;;;17.63;3.00;;;;;;;18.39;47.53;101224.25;5051068;28;20020;-70
2022/11/01 08:22:55;;;;;;;15.50;1.92;;;;;;;19.87;44.78;101224.72;5050263;28;20027;-69
2022/11/01 08:25:21;;;;;;;15.52;2.03;;;;;;;17.99;48.24;101241.53;5051017;28;20029;-70
2022/11/01 08:27:46;;;;;;;14.20;1.90;;;;;;;17.33;50.21;101231.34;5050817;28;20059;-71
2022/11/01 08:30:16;;;;;;;11.75;2.22;;;;;;;17.77;48.90;101231.66;5050095;28;20029;-69
2022/11/01 08:32:42;;;;;;;10.15;1.63;;;;;;;18.86;47.04;101249.00;5052221;28;20028;-71
2022/11/01 08:35:08;;;;;;;15.23;2.10;;;;;;;18.59;47.66;101247.34;5050808;28;20075;-71
2022/11/01 08:37:33;;;;;;;13.20;2.10;;;;;;;18.99;46.67;101245.00;5049979;28;20047;-70
2022/11/01 08:39:58;;;;;;;17.90;2.17;;;;;;;18.66;47.35;101258.56;5051780;28;20060;-70
2022/11/01 08:42:24;;;;;;;13.70;2.42;;;;;;;18.62;47.93;101262.25;5050696;28;20055;-70
2022/11/01 08:44:49;;;;;;;12.38;2.28;;;;;;;19.02;47.50;101255.47;5050034;28;20111;-70
2022/11/01 08:47:15;;;;;;;18.55;2.50;;;;;;;17.72;49.86;101265.34;5050680;28;20045;-71
2022/11/01 08:49:40;;;;;;;8.95;1.77;;;;;;;20.19;45.04;101264.91;5051856;28;20025;-70
2022/11/01 08:52:05;;;;;;;11.20;1.65;;;;;;;19.92;44.69;101287.25;5049822;28;20507;-70
2022/11/01 08:54:33;;;;;;;17.40;1.80;;;;;;;19.53;45.69;101281.78;5051837;28;20060;-70
2022/11/01 08:56:59;;;;;;;17.63;2.22;;;;;;;19.44;46.03;101283.88;5050431;28;20193;-70
2022/11/01 08:59:24;;;;;;;16.27;2.97;;;;;;;19.47;46.23;101278.44;5049789;28;20116;-71
2022/11/01 09:01:49;;;;;;;14.65;1.73;;;;;;;19.79;45.60;101278.03;5051674;28;20123;-71
2022/11/01 09:04:16;;;;;;;14.40;1.95;;;;;;;19.34;45.88;101293.09;5050092;28;20110;-70
2022/11/01 09:06:41;;;;;;;17.98;3.47;;;;;;;19.02;47.45;101287.28;5049061;28;20013;-71
2022/11/01 09:09:07;;;;;;;15.10;2.30;;;;;;;18.99;47.74;101298.00;5051620;28;20078;-71
2022/11/01 09:11:32;;;;;;;8.80;2.38;;;;;;;18.56;48.51;101312.75;5050191;28;20029;-71
2022/11/01 09:13:57;;;;;;;16.27;2.05;;;;;;;20.33;45.45;101297.00;5049538;28;20025;-70
2022/11/01 09:16:23;;;;;;;14.95;2.15;;;;;;;19.32;47.29;101310.84;5049768;28;20032;-70
2022/11/01 09:18:48;;;;;;;19.65;2.50;;;;;;;20.21;45.57;101316.13;5050328;28;20025;-70
2022/11/01 09:21:15;;;;;;;15.50;2.80;;;;;;;20.16;45.50;101319.81;5049527;28;20463;-70
2022/11/01 09:23:41;;;;;;;15.80;2.47;;;;;;;20.47;44.27;101328.25;5050147;28;20111;-71
2022/11/01 09:26:09;;;;;;;14.38;2.05;;;;;;;21.49;42.99;101324.50;5050639;28;20100;-70
2022/11/01 09:28:35;;;;;;;14.50;2.08;;;;;;;20.73;44.41;101332.47;5049895;28;20504;-70
2022/11/01 09:31:06;;;;;;;19.20;2.30;;;;;;;21.13;43.48;101332.41;5066760;28;20087;-70
2022/11/01 09:33:32;;;;;;;12.75;1.95;;;;;;;21.23;43.13;101343.50;5049322;28;20075;-70
2022/11/01 09:35:58;;;;;;;17.08;2.00;;;;;;;21.93;41.45;101343.75;5049916;28;20017;-71
2022/11/01 09:38:23;;;;;;;16.45;2.17;;;;;;;21.05;43.31;101346.09;5049747;28;20052;-71
2022/11/01 09:40:59;;;;;;;17.77;2.33;;;;;;;21.84;41.69;101351.25;5049051;28;20389;-70
2022/11/01 09:43:29;;;;;;;19.33;2.40;;;;;;;21.50;42.42;101352.84;5050018;28;20025;-70
2022/11/01 09:45:58;;;;;;;15.73;2.70;;;;;;;21.27;42.77;101347.75;5051282;28;20441;-70
2022/11/01 09:48:26;;;;;;;15.77;1.88;;;;;;;20.75;44.12;101337.72;5048884;28;20066;-70
2022/11/01 09:50:52;;;;;;;17.90;2.55;;;;;;;20.84;43.79;101354.09;5051213;28;20476;-71
2022/11/01 09:53:22;;;;;;;11.50;1.90;;;;;;;21.04;43.26;101354.97;5051161;28;20485;-71
2022/11/01 09:55:53;;;;;;;18.00;2.47;;;;;;;20.50;45.15;101350.22;5048895;28;20048;-70
2022/11/01 09:58:29;;;;;;;15.68;1.77;;;;;;;20.76;44.51;101356.22;5049488;28;20032;-71
2022/11/01 10:01:15;;;;;;;13.27;2.13;;;;;;;20.60;44.46;101357.81;5051254;28;20052;-70
2022/11/01 10:03:57;;;;;;;16.55;2.55;;;;;;;21.04;43.92;101354.97;5049827;28;20075;-71
2022/11/01 10:06:30;;;;;;;16.42;2.42;;;;;;;21.57;42.86;101357.88;5066567;28;20094;-70
2022/11/01 10:09:32;;;;;;;14.88;2.58;;;;;;;21.74;42.80;101375.69;5049973;28;20028;-70
2022/11/01 10:12:03;;;;;;;15.88;2.35;;;;;;;20.67;45.00;101369.88;5051015;28;20028;-70
2022/11/01 10:14:58;;;;;;;18.63;2.30;;;;;;;21.77;42.89;101371.06;5049774;28;20052;-70
2022/11/01 10:17:42;;;;;;;16.17;1.65;;;;;;;21.67;43.08;101380.44;5050394;28;20128;-70
2022/11/01 10:20:11;;;;;;;10.27;2.10;;;;;;;20.45;45.20;101389.38;5053484;28;20049;-70
2022/11/01 10:22:39;;;;;;;16.73;2.22;;;;;;;21.34;43.64;101389.06;5052479;28;20027;-70
2022/11/01 10:25:21;;;;;;;14.25;2.30;;;;;;;21.27;43.89;101382.31;5053325;28;20120;-70
2022/11/01 10:27:55;;;;;;;12.38;2.20;;;;;;;21.82;42.96;101395.66;5053297;28;20017;-70
2022/11/01 10:30:21;;;;;;;12.65;2.05;;;;;;;22.47;41.64;101408.47;5052160;28;20028;-70
2022/11/01 10:33:20;;;;;;;13.65;1.77;;;;;;;22.18;42.10;101385.94;5052996;28;20033;-70
2022/11/01 10:35:50;;;;;;;9.95;1.73;;;;;;;20.93;44.10;101399.78;5053054;28;20074;-70
2022/11/01 10:38:35;;;;;;;16.75;2.10;;;;;;;21.89;42.31;101406.88;5053344;28;20028;-70
2022/11/01 10:41:19;;;;;;;15.77;2.50;;;;;;;21.28;42.81;101400.84;5052956;28;20043;-71
2022/11/01 10:43:48;;;;;;;24.88;2.25;;;;;;;21.08;44.33;101407.06;5053468;28;20033;-70
2022/11/01 10:46:26;;;;;;;16.23;1.80;;;;;;;21.62;42.70;101414.38;5052880;28;20021;-70
2022/11/01 10:49:02;;;;;;;17.63;2.97;;;;;;;21.41;42.74;101422.41;5053143;28;20385;-70
2022/11/01 10:51:29;;;;;;;14.82;2.40;;;;;;;20.49;44.29;101417.53;5052136;28;20116;-70
2022/11/01 10:54:00;;;;;;;16.35;1.90;;;;;;;21.65;42.97;101414.22;5052511;28;20036;-71
2022/11/01 10:56:36;;;;;;;9.13;1.73;;;;;;;21.01;43.44;101416.25;5052468;28;20045;-70
2022/11/01 10:59:24;;;;;;;10.60;2.00;;;;;;;22.04;41.84;101405.28;5051569;28;20028;-70
2022/11/01 11:01:51;;;;;;;15.30;1.88;;;;;;;22.02;41.52;101417.78;5041868;28;20037;-71
2022/11/01 11:04:21;;;;;;;11.05;1.65;;;;;;;21.80;41.94;101418.84;5054141;28;20021;-70
2022/11/01 11:06:47;;;;;;;10.00;1.83;;;;;;;20.97;43.53;101412.84;5051871;28;20075;-70
2022/11/01 11:09:22;;;;;;;12.13;2.13;;;;;;;20.88;43.63;101407.09;5053887;28;20434;-70
2022/11/01 11:11:48;;;;;;;13.80;2.03;;;;;;;21.84;42.78;101404.44;5068228;28;20115;-70
2022/11/01 11:14:17;;;;;;;12.38;2.00;;;;;;;21.39;43.00;101407.44;5052256;28;20025;-71
2022/11/01 11:16:55;;;;;;;9.52;1.73;;;;;;;22.77;40.54;101399.81;5052228;28;20503;-71
2022/11/01 11:19:22;;;;;;;19.65;1.88;;;;;;;22.48;40.70;101410.19;5051363;28;20032;-70
2022/11/01 11:21:50;;;;;;;13.27;2.40;;;;;;;21.97;41.47;101403.84;5052265;28;20036;-71
2022/11/01 11:24:25;;;;;;;18.98;2.17;;;;;;;22.01;41.32;101405.44;5052139;28;20033;-71
2022/11/01 11:26:53;;;;;;;9.65;1.67;;;;;;;21.60;41.72;101413.59;5052604;28;20020;-71
2022/11/01 11:29:33;;;;;;;14.20;1.83;;;;;;;21.88;41.88;101398.97;5051627;28;20476;-70
2022/11/01 11:31:59;;;;;;;13.07;1.70;;;;;;;21.14;43.05;101401.47;5053300;28;20024;-71